Airfield :
LOGIN :

Register | Disclaimer

   EN    FR    IT 

 










Legend :    VFR   Marginal VFR   IFR   Intensive IFR   Very Intensive IFR
Visi :
Ceiling :
>= 8 km
>= 3000ft
5 to 8 km
1000 to 3000 ft
1500m to 5 km
500 to 1000 ft
800 to 1500m
200 to 500 ft
< 800m
< 200 ft
Symbols :   Thunderstorms  Fog  Heavy snow  Heavy precipitations  Wind > 20 kt
SIGMETs :     Misc.  Thunderstorms  Icing  Turbulence  Mountain Waves  Volcanic Ashes







- Airport Elevation : 0 ft


ENQA - Troll A Platform

CURRENT METAR :
  • 210420Z AUTO 14009KT 2400NDV -SHRA OVC004/// 08/07 Q1022 W06/S3

EXPIRED METARs :
  • 210350Z AUTO 15007KT 1400NDV -RA OVC006/// 08/07 Q1023 W06/S3
  • 210320Z AUTO 14008KT 1900NDV -RA BR OVC051/// 08/07 Q1024 W06/S3
  • 210250Z AUTO 14008KT 1600NDV -RA BKN004/// OVC053/// 08/07 Q1024 W06/S3
  • 210220Z AUTO 14007KT 4000NDV -DZ OVC003/// 08/07 Q1025 W06/S3
  • 210150Z AUTO 15005KT 1700NDV -DZ BR NCD 08/07 Q1025 W06/S3

TAF N/A
No reported NOTAMs for that airfield.



MET'MAP, your aeronautical weather chart ! - Copyright ORBIFLY December 2007 - Disclaimer

ORBIFLY MET'MAP TEAM :

Programming & Development : Alexandra Zaïnal
Concept & Development : Baudouin d'Aumeries
Co-Development & Prog : Marc-Olivier Méhu
Technical & hardware support : Manuel Goepfert

Contact : metmap@orbifly.com




SOURCES & CREDITS :

   NOAA